createdAt,value
2018-11-28T00:00:29.114Z,101316.55
2018-11-28T00:05:32.481Z,101308.02
2018-11-28T00:10:35.794Z,101303.88
2018-11-28T00:15:39.140Z,101297.86
2018-11-28T00:20:42.481Z,101308.28
2018-11-28T00:25:45.820Z,101293.24
2018-11-28T00:30:49.144Z,101286.73
2018-11-28T00:35:52.497Z,101290.78
2018-11-28T00:40:55.850Z,101287.52
2018-11-28T00:45:59.231Z,101306.08
2018-11-28T00:51:02.587Z,101297.37
2018-11-28T00:56:06.090Z,101301.39
2018-11-28T01:01:09.459Z,101302.73
2018-11-28T01:06:12.827Z,101298.42
2018-11-28T01:11:16.205Z,101309.42
2018-11-28T01:16:19.553Z,101312.30
2018-11-28T01:21:22.906Z,101311.82
2018-11-28T01:26:26.279Z,101309.33
2018-11-28T01:31:29.606Z,101299.56
2018-11-28T01:36:32.963Z,101302.98
2018-11-28T01:41:36.308Z,101303.47
2018-11-28T01:46:39.673Z,101302.31
2018-11-28T01:51:43.008Z,101297.91
2018-11-28T01:56:46.338Z,101309.28
2018-11-28T02:01:49.681Z,101325.85
2018-11-28T02:06:53.013Z,101322.88
2018-11-28T02:11:56.366Z,101328.89
2018-11-28T02:16:59.719Z,101333.96
2018-11-28T02:22:03.060Z,101327.73
2018-11-28T02:27:06.440Z,101339.52
2018-11-28T02:32:09.772Z,101341.72
2018-11-28T02:37:13.079Z,101339.29
2018-11-28T02:42:16.443Z,101344.20
2018-11-28T02:47:19.792Z,101345.22
2018-11-28T02:52:23.110Z,101351.64
2018-11-28T02:57:26.429Z,101356.52
2018-11-28T03:02:29.756Z,101356.71
2018-11-28T03:07:33.109Z,101358.69
2018-11-28T03:12:36.439Z,101365.39
2018-11-28T03:17:39.751Z,101365.00
2018-11-28T03:22:43.095Z,101373.91
2018-11-28T03:27:46.417Z,101366.91
2018-11-28T03:32:49.750Z,101364.71
2018-11-28T03:37:53.072Z,101374.28
2018-11-28T03:42:56.390Z,101373.89
2018-11-28T03:47:59.735Z,101370.80
2018-11-28T03:53:03.096Z,101383.43
2018-11-28T03:58:06.406Z,101373.19
2018-11-28T04:03:09.768Z,101376.34
2018-11-28T04:08:13.132Z,101370.22
2018-11-28T04:13:16.459Z,101378.34
2018-11-28T04:18:19.815Z,101386.86
2018-11-28T04:28:32.530Z,101389.64
2018-11-28T04:33:35.904Z,101393.10
2018-11-28T04:38:39.283Z,101390.61
2018-11-28T04:43:42.654Z,101383.14
2018-11-28T04:48:45.992Z,101390.80
2018-11-28T04:53:49.311Z,101391.42
2018-11-28T04:58:52.639Z,101397.05
2018-11-28T05:03:55.956Z,101398.88
2018-11-28T05:08:59.303Z,101398.07
2018-11-28T05:14:02.625Z,101391.91
2018-11-28T05:19:06.075Z,101400.84
2018-11-28T05:24:09.398Z,101405.02
2018-11-28T05:29:12.726Z,101418.88
2018-11-28T05:34:16.030Z,101403.77
2018-11-28T05:39:19.356Z,101405.58
2018-11-28T05:44:22.698Z,101414.56
2018-11-28T05:49:26.045Z,101407.48
2018-11-28T05:54:29.393Z,101398.58
2018-11-28T05:59:32.761Z,101401.35
2018-11-28T06:04:36.084Z,101405.91
2018-11-28T06:09:39.464Z,101408.20
2018-11-28T06:14:42.787Z,101412.22
2018-11-28T06:19:46.136Z,101426.95
2018-11-28T06:24:49.462Z,101423.03
2018-11-28T06:29:52.839Z,101429.81
2018-11-28T06:34:56.168Z,101428.47
2018-11-28T06:39:59.511Z,101433.92
2018-11-28T06:45:03.097Z,101432.20
2018-11-28T06:50:09.890Z,101433.14
2018-11-28T06:55:15.565Z,101440.37
2018-11-28T07:00:20.936Z,101441.42
2018-11-28T07:05:24.342Z,101447.73
2018-11-28T07:10:27.660Z,101468.29
2018-11-28T07:15:31.007Z,101462.63
2018-11-28T07:20:34.342Z,101456.89
2018-11-28T07:25:37.674Z,101450.25
2018-11-28T07:30:41.020Z,101467.19
2018-11-28T07:35:44.344Z,101451.16
2018-11-28T07:40:47.727Z,101470.90
2018-11-28T07:45:52.143Z,101481.61
2018-11-28T07:50:55.547Z,101479.02
2018-11-28T07:55:58.878Z,101498.44
2018-11-28T08:01:02.319Z,101508.98
2018-11-28T08:06:05.751Z,101513.42
2018-11-28T08:11:09.096Z,101496.17
2018-11-28T08:16:12.428Z,101486.31
2018-11-28T08:21:15.763Z,101490.02
2018-11-28T08:26:19.118Z,101484.98
2018-11-28T08:31:22.439Z,101489.84
2018-11-28T08:36:25.787Z,101485.75
2018-11-28T08:41:29.132Z,101481.05
2018-11-28T08:46:32.476Z,101482.38
2018-11-28T08:51:35.801Z,101494.41
2018-11-28T08:56:39.128Z,101490.81
2018-11-28T09:01:42.474Z,101484.55
2018-11-28T09:06:45.831Z,101498.66
2018-11-28T09:11:49.167Z,101493.97
2018-11-28T09:16:52.478Z,101488.84
2018-11-28T09:21:55.811Z,101489.38
2018-11-28T09:26:59.170Z,101491.11
2018-11-28T09:32:02.515Z,101490.95
2018-11-28T09:37:05.977Z,101497.19
2018-11-28T09:42:09.326Z,101502.30
2018-11-28T09:47:12.653Z,101503.75
2018-11-28T09:52:15.963Z,101501.22
2018-11-28T09:57:19.273Z,101505.77
2018-11-28T10:02:22.611Z,101505.38
2018-11-28T10:07:25.943Z,101510.11
2018-11-28T10:12:29.250Z,101503.59
2018-11-28T10:17:32.609Z,101497.14
2018-11-28T10:22:36.022Z,101495.66
2018-11-28T10:27:39.442Z,101488.05
2018-11-28T10:32:42.778Z,101486.66
2018-11-28T10:37:46.151Z,101481.10
2018-11-28T10:42:51.729Z,101478.88
2018-11-28T10:47:55.099Z,101473.09
2018-11-28T10:52:58.416Z,101472.16
2018-11-28T10:58:01.742Z,101473.38
2018-11-28T11:03:11.736Z,101470.59
2018-11-28T11:08:20.533Z,101471.94
2018-11-28T11:13:29.059Z,101467.39
2018-11-28T11:18:32.395Z,101468.06
2018-11-28T11:23:35.723Z,101466.38
2018-11-28T11:28:39.051Z,101462.45
2018-11-28T11:33:42.382Z,101458.66
2018-11-28T11:38:45.722Z,101465.05
2018-11-28T11:43:49.066Z,101460.95
2018-11-28T11:48:59.012Z,101455.97
2018-11-28T11:54:02.331Z,101459.48
2018-11-28T11:59:05.650Z,101455.17
2018-11-28T12:04:08.974Z,101449.74
2018-11-28T12:09:12.333Z,101447.86
2018-11-28T12:14:15.660Z,101453.83
2018-11-28T12:19:18.979Z,101450.28
2018-11-28T12:24:22.292Z,101445.11
2018-11-28T12:29:25.634Z,101439.70
2018-11-28T12:34:28.967Z,101441.72
2018-11-28T12:39:32.315Z,101434.92
2018-11-28T12:44:35.634Z,101438.59
2018-11-28T12:49:39.027Z,101433.58
2018-11-28T12:54:42.353Z,101422.41
2018-11-28T12:59:45.667Z,101417.69
2018-11-28T13:04:48.986Z,101403.65
2018-11-28T13:09:52.639Z,101404.22
2018-11-28T13:14:55.985Z,101401.42
2018-11-28T13:19:59.324Z,101388.86
2018-11-28T13:25:02.723Z,101379.70
2018-11-28T13:30:13.738Z,101378.80
2018-11-28T13:35:19.950Z,101369.34
2018-11-28T13:40:23.292Z,101374.23
2018-11-28T13:45:29.122Z,101373.95
2018-11-28T13:50:32.462Z,101375.03
2018-11-28T13:55:39.580Z,101373.01
2018-11-28T14:00:41.764Z,101377.61
2018-11-28T14:05:45.121Z,101387.39
2018-11-28T14:10:48.466Z,101386.42
2018-11-28T14:15:51.797Z,101397.78
2018-11-28T14:20:55.103Z,101396.32
2018-11-28T14:25:58.485Z,101386.84
2018-11-28T14:31:01.864Z,101381.00
2018-11-28T14:36:05.484Z,101381.30
2018-11-28T14:41:08.793Z,101381.49
2018-11-28T14:46:12.143Z,101385.39
2018-11-28T14:51:16.034Z,101379.64
2018-11-28T14:56:19.467Z,101376.13
2018-11-28T15:01:23.206Z,101391.45
2018-11-28T15:06:32.732Z,101383.86
2018-11-28T15:11:36.116Z,101385.97
2018-11-28T15:16:39.463Z,101391.05
2018-11-28T15:21:42.788Z,101384.92
2018-11-28T15:26:46.271Z,101377.44
2018-11-28T15:31:49.832Z,101390.87
2018-11-28T15:36:53.228Z,101382.95
2018-11-28T15:41:56.602Z,101377.18
2018-11-28T15:46:59.985Z,101374.18
2018-11-28T15:52:03.347Z,101386.55
2018-11-28T15:57:06.778Z,101385.87
2018-11-28T16:02:10.163Z,101384.98
2018-11-28T16:07:13.498Z,101379.16
2018-11-28T16:12:16.900Z,101387.91
2018-11-28T16:17:20.339Z,101387.10
2018-11-28T16:22:23.723Z,101376.79
2018-11-28T16:27:28.024Z,101373.54
2018-11-28T16:32:31.377Z,101386.63
2018-11-28T16:37:34.739Z,101395.64
2018-11-28T16:42:38.139Z,101398.03
2018-11-28T16:47:41.485Z,101394.97
2018-11-28T16:52:44.987Z,101395.58
2018-11-28T16:57:51.847Z,101389.70
2018-11-28T17:02:55.775Z,101391.36
2018-11-28T17:07:59.128Z,101395.48
2018-11-28T17:13:02.479Z,101390.14
2018-11-28T17:18:06.569Z,101387.55
2018-11-28T17:23:09.959Z,101385.63
2018-11-28T17:28:13.343Z,101381.53
2018-11-28T17:33:16.679Z,101380.45
2018-11-28T17:38:20.036Z,101382.92
2018-11-28T17:43:23.367Z,101379.77
2018-11-28T17:48:26.711Z,101386.80
2018-11-28T17:53:30.065Z,101387.72
2018-11-28T17:58:33.415Z,101392.34
2018-11-28T18:03:36.809Z,101385.89
2018-11-28T18:08:40.146Z,101379.45
2018-11-28T18:13:43.903Z,101387.02
2018-11-28T18:18:47.249Z,101382.81
2018-11-28T18:23:50.595Z,101375.98
2018-11-28T18:28:53.945Z,101369.64
2018-11-28T18:33:57.300Z,101361.70
2018-11-28T18:39:00.681Z,101352.66
2018-11-28T18:44:04.084Z,101354.20
2018-11-28T18:49:07.442Z,101349.16
2018-11-28T18:54:10.789Z,101354.03
2018-11-28T18:59:14.138Z,101360.39
2018-11-28T19:09:25.436Z,101349.85
2018-11-28T19:14:28.752Z,101358.06
2018-11-28T19:19:32.074Z,101360.39
2018-11-28T19:24:35.408Z,101365.27
2018-11-28T19:29:38.748Z,101361.08
2018-11-28T19:39:45.396Z,101365.00
2018-11-28T19:44:48.734Z,101365.21
2018-11-28T19:49:52.064Z,101365.92
2018-11-28T19:54:55.391Z,101372.69
2018-11-28T20:05:08.371Z,101367.24
2018-11-28T20:10:13.952Z,101366.48
2018-11-28T20:15:18.600Z,101369.95
2018-11-28T20:20:22.020Z,101359.05
2018-11-28T20:25:25.726Z,101352.94
2018-11-28T20:30:38.352Z,101354.39
2018-11-28T20:35:42.667Z,101345.79
2018-11-28T20:40:46.018Z,101334.28
2018-11-28T20:45:49.364Z,101330.27
2018-11-28T20:50:53.127Z,101349.55
2018-11-28T20:55:57.489Z,101350.22
2018-11-28T21:01:00.847Z,101348.59
2018-11-28T21:06:04.251Z,101355.14
2018-11-28T21:11:07.626Z,101339.95
2018-11-28T21:16:10.946Z,101343.70
2018-11-28T21:21:14.274Z,101340.34
2018-11-28T21:26:17.616Z,101334.48
2018-11-28T21:31:20.966Z,101350.22
2018-11-28T21:36:24.319Z,101344.85
2018-11-28T21:41:27.674Z,101351.56
2018-11-28T21:46:31.013Z,101349.84
2018-11-28T21:51:34.335Z,101363.48
2018-11-28T21:56:38.190Z,101354.84
2018-11-28T22:01:41.027Z,101342.09
2018-11-28T22:06:44.423Z,101345.81
2018-11-28T22:11:47.762Z,101329.94
2018-11-28T22:16:51.155Z,101332.69
2018-11-28T22:21:54.507Z,101322.91
2018-11-28T22:26:57.823Z,101332.97
2018-11-28T22:32:01.157Z,101340.16
2018-11-28T22:37:04.495Z,101327.91
2018-11-28T22:42:07.848Z,101310.45
2018-11-28T22:47:11.179Z,101312.38
2018-11-28T22:52:14.508Z,101314.96
2018-11-28T22:57:17.850Z,101302.30
2018-11-28T23:02:41.396Z,101293.48
2018-11-28T23:07:44.746Z,101283.60
2018-11-28T23:12:48.105Z,101274.58
2018-11-28T23:17:55.153Z,101276.09
2018-11-28T23:22:54.838Z,101269.97
2018-11-28T23:27:58.182Z,101267.28
2018-11-28T23:33:02.069Z,101268.25
2018-11-28T23:38:06.018Z,101261.05
2018-11-28T23:43:09.365Z,101253.00
2018-11-28T23:48:12.715Z,101255.79
2018-11-28T23:53:16.069Z,101260.95
2018-11-28T23:58:19.377Z,101262.12
